Dinsmore, Texas
Current Conditions -  °F | °C
As of 5:55 PM on Wednesday 26 Nov 2014 (Local Time) from KELA Reporting Station
Clear Clear  
Wind Chill: 58°   Ceiling: Unl
Heat Index: 58°   Visibility: 10mi
Dew Point: 44°   Wind: 0mph
Humidity: 61%   Direction: NA
Pressure: 30.21"   Gusts: NA
Location:  29.2926°N, 96.034°W
Report Text: KELA 262355Z AUTO 00000KT 10SM CLR 14/07 A3021 RMK AO2 T01420068 10219 20140
Loading
Personal Weather Stations






























Interactive Weather Map New forecast layout! Learn more

10-Day Weather Forecast

Advertisements
Track Severe Weather on mobile